sensor_id;sensor_type;location;lat;lon;timestamp;pressure;altitude;pressure_sealevel;temperature;humidity
18821;BME280;9539;59.332;18.034;2022-11-20T00:01:24;101436.72;;;1.00;100.00
18821;BME280;9539;59.332;18.034;2022-11-20T00:03:52;101423.78;;;0.89;100.00
18821;BME280;9539;59.332;18.034;2022-11-20T00:06:20;101427.03;;;1.08;100.00
18821;BME280;9539;59.332;18.034;2022-11-20T00:08:49;101423.56;;;1.06;100.00
18821;BME280;9539;59.332;18.034;2022-11-20T00:11:17;101408.88;;;0.96;100.00
18821;BME280;9539;59.332;18.034;2022-11-20T00:13:45;101410.66;;;0.94;100.00
18821;BME280;9539;59.332;18.034;2022-11-20T00:16:15;101398.66;;;0.74;100.00
18821;BME280;9539;59.332;18.034;2022-11-20T00:18:42;101409.91;;;0.83;100.00
18821;BME280;9539;59.332;18.034;2022-11-20T00:21:11;101404.53;;;0.95;100.00
18821;BME280;9539;59.332;18.034;2022-11-20T00:23:39;101406.47;;;0.77;100.00
18821;BME280;9539;59.332;18.034;2022-11-20T00:26:10;101408.97;;;0.85;100.00
18821;BME280;9539;59.332;18.034;2022-11-20T00:28:37;101417.81;;;0.75;100.00
18821;BME280;9539;59.332;18.034;2022-11-20T00:31:05;101416.75;;;0.94;100.00
18821;BME280;9539;59.332;18.034;2022-11-20T00:33:32;101414.25;;;0.84;100.00
18821;BME280;9539;59.332;18.034;2022-11-20T00:36:00;101408.22;;;0.75;100.00
18821;BME280;9539;59.332;18.034;2022-11-20T00:38:27;101400.13;;;1.00;100.00
18821;BME280;9539;59.332;18.034;2022-11-20T00:40:56;101401.00;;;0.99;100.00
18821;BME280;9539;59.332;18.034;2022-11-20T00:43:24;101407.25;;;0.86;100.00
18821;BME280;9539;59.332;18.034;2022-11-20T00:45:56;101395.81;;;0.96;100.00
18821;BME280;9539;59.332;18.034;2022-11-20T00:48:23;101388.00;;;0.94;100.00
18821;BME280;9539;59.332;18.034;2022-11-20T00:50:50;101386.25;;;0.96;100.00
18821;BME280;9539;59.332;18.034;2022-11-20T00:53:16;101379.34;;;0.89;100.00
18821;BME280;9539;59.332;18.034;2022-11-20T00:55:52;101375.88;;;0.86;100.00
18821;BME280;9539;59.332;18.034;2022-11-20T00:58:19;101379.38;;;0.88;100.00
18821;BME280;9539;59.332;18.034;2022-11-20T01:00:47;101369.72;;;0.91;100.00
18821;BME280;9539;59.332;18.034;2022-11-20T01:03:14;101373.19;;;0.93;100.00
18821;BME280;9539;59.332;18.034;2022-11-20T01:05:41;101375.13;;;0.77;100.00
18821;BME280;9539;59.332;18.034;2022-11-20T01:08:08;101371.50;;;0.89;100.00
18821;BME280;9539;59.332;18.034;2022-11-20T01:10:35;101359.47;;;0.74;100.00
18821;BME280;9539;59.332;18.034;2022-11-20T01:13:02;101363.69;;;0.89;100.00
18821;BME280;9539;59.332;18.034;2022-11-20T01:16:04;101348.94;;;0.82;100.00
18821;BME280;9539;59.332;18.034;2022-11-20T01:18:30;101357.59;;;0.86;100.00
18821;BME280;9539;59.332;18.034;2022-11-20T01:21:00;101368.97;;;0.82;100.00
18821;BME280;9539;59.332;18.034;2022-11-20T01:23:30;101343.81;;;0.74;100.00
18821;BME280;9539;59.332;18.034;2022-11-20T01:25:59;101355.06;;;0.81;100.00
18821;BME280;9539;59.332;18.034;2022-11-20T01:28:26;101356.84;;;0.77;100.00
18821;BME280;9539;59.332;18.034;2022-11-20T01:30:53;101350.56;;;0.94;100.00
18821;BME280;9539;59.332;18.034;2022-11-20T01:33:21;101352.94;;;1.13;100.00
18821;BME280;9539;59.332;18.034;2022-11-20T01:35:48;101352.16;;;1.04;100.00
18821;BME280;9539;59.332;18.034;2022-11-20T01:38:15;101340.25;;;0.82;100.00
18821;BME280;9539;59.332;18.034;2022-11-20T01:40:41;101330.66;;;0.82;100.00
18821;BME280;9539;59.332;18.034;2022-11-20T01:43:13;101329.53;;;1.03;100.00
18821;BME280;9539;59.332;18.034;2022-11-20T01:46:13;101325.97;;;1.10;100.00
18821;BME280;9539;59.332;18.034;2022-11-20T01:48:46;101329.53;;;1.03;100.00
18821;BME280;9539;59.332;18.034;2022-11-20T01:51:20;101321.72;;;1.03;100.00
18821;BME280;9539;59.332;18.034;2022-11-20T01:53:48;101310.53;;;0.90;100.00
18821;BME280;9539;59.332;18.034;2022-11-20T01:56:17;101310.41;;;1.01;100.00
18821;BME280;9539;59.332;18.034;2022-11-20T01:58:48;101312.22;;;0.94;100.00
18821;BME280;9539;59.332;18.034;2022-11-20T02:01:17;101296.44;;;1.03;100.00
18821;BME280;9539;59.332;18.034;2022-11-20T02:03:46;101300.66;;;1.12;100.00
18821;BME280;9539;59.332;18.034;2022-11-20T02:06:17;101299.16;;;0.96;100.00
18821;BME280;9539;59.332;18.034;2022-11-20T02:08:45;101291.34;;;0.91;100.00
18821;BME280;9539;59.332;18.034;2022-11-20T02:11:12;101292.06;;;1.04;100.00
18821;BME280;9539;59.332;18.034;2022-11-20T02:13:39;101291.25;;;0.99;100.00
18821;BME280;9539;59.332;18.034;2022-11-20T02:16:11;101281.91;;;0.79;100.00
18821;BME280;9539;59.332;18.034;2022-11-20T02:18:39;101280.78;;;1.00;100.00
18821;BME280;9539;59.332;18.034;2022-11-20T02:21:25;101281.81;;;0.89;100.00
18821;BME280;9539;59.332;18.034;2022-11-20T02:23:59;101275.47;;;1.08;100.00
18821;BME280;9539;59.332;18.034;2022-11-20T02:26:27;101278.28;;;0.91;100.00
18821;BME280;9539;59.332;18.034;2022-11-20T02:28:54;101269.53;;;0.95;100.00
18821;BME280;9539;59.332;18.034;2022-11-20T02:31:21;101260.78;;;0.98;100.00
18821;BME280;9539;59.332;18.034;2022-11-20T02:33:54;101264.25;;;1.00;100.00
18821;BME280;9539;59.332;18.034;2022-11-20T02:36:21;101251.25;;;0.97;100.00
18821;BME280;9539;59.332;18.034;2022-11-20T02:38:48;101244.31;;;0.91;100.00
18821;BME280;9539;59.332;18.034;2022-11-20T02:41:17;101258.31;;;0.87;100.00
18821;BME280;9539;59.332;18.034;2022-11-20T02:43:44;101260.03;;;0.90;100.00
18821;BME280;9539;59.332;18.034;2022-11-20T02:46:11;101245.34;;;0.78;100.00
18821;BME280;9539;59.332;18.034;2022-11-20T02:48:37;101255.69;;;0.87;100.00
18821;BME280;9539;59.332;18.034;2022-11-20T02:51:04;101241.94;;;0.74;100.00
18821;BME280;9539;59.332;18.034;2022-11-20T02:53:34;101246.16;;;0.85;100.00
18821;BME280;9539;59.332;18.034;2022-11-20T02:56:01;101239.31;;;0.77;100.00
18821;BME280;9539;59.332;18.034;2022-11-20T02:58:29;101240.78;;;0.97;100.00
18821;BME280;9539;59.332;18.034;2022-11-20T03:00:56;101228.00;;;0.77;100.00
18821;BME280;9539;59.332;18.034;2022-11-20T03:03:22;101234.72;;;0.92;100.00
18821;BME280;9539;59.332;18.034;2022-11-20T03:05:50;101238.38;;;0.78;100.00
18821;BME280;9539;59.332;18.034;2022-11-20T03:08:16;101205.53;;;0.64;100.00
18821;BME280;9539;59.332;18.034;2022-11-20T03:10:43;101224.19;;;0.98;100.00
18821;BME280;9539;59.332;18.034;2022-11-20T03:13:10;101223.31;;;1.00;100.00
18821;BME280;9539;59.332;18.034;2022-11-20T03:15:38;101221.66;;;0.92;100.00
18821;BME280;9539;59.332;18.034;2022-11-20T03:18:05;101228.09;;;0.68;100.00
18821;BME280;9539;59.332;18.034;2022-11-20T03:20:32;101201.13;;;0.66;100.00
18821;BME280;9539;59.332;18.034;2022-11-20T03:22:59;101221.81;;;0.83;100.00
18821;BME280;9539;59.332;18.034;2022-11-20T03:25:26;101220.16;;;0.77;100.00
18821;BME280;9539;59.332;18.034;2022-11-20T03:27:53;101214.00;;;0.81;100.00
18821;BME280;9539;59.332;18.034;2022-11-20T03:30:20;101215.78;;;0.77;100.00
18821;BME280;9539;59.332;18.034;2022-11-20T03:32:48;101213.91;;;0.86;100.00
18821;BME280;9539;59.332;18.034;2022-11-20T03:35:15;101206.06;;;0.87;100.00
18821;BME280;9539;59.332;18.034;2022-11-20T03:37:42;101206.19;;;0.78;100.00
18821;BME280;9539;59.332;18.034;2022-11-20T03:40:11;101200.75;;;0.92;100.00
18821;BME280;9539;59.332;18.034;2022-11-20T03:42:38;101199.81;;;0.99;100.00
18821;BME280;9539;59.332;18.034;2022-11-20T03:45:14;101200.25;;;0.67;100.00
18821;BME280;9539;59.332;18.034;2022-11-20T03:47:41;101192.19;;;0.84;100.00
18821;BME280;9539;59.332;18.034;2022-11-20T03:50:12;101192.19;;;0.84;100.00
18821;BME280;9539;59.332;18.034;2022-11-20T03:52:39;101187.88;;;0.79;100.00
18821;BME280;9539;59.332;18.034;2022-11-20T03:55:07;101186.09;;;0.83;100.00
18821;BME280;9539;59.332;18.034;2022-11-20T03:57:34;101181.94;;;0.68;100.00
18821;BME280;9539;59.332;18.034;2022-11-20T04:00:02;101175.56;;;0.91;100.00
18821;BME280;9539;59.332;18.034;2022-11-20T04:02:29;101174.97;;;0.70;100.00
18821;BME280;9539;59.332;18.034;2022-11-20T04:04:56;101166.13;;;0.79;100.00
18821;BME280;9539;59.332;18.034;2022-11-20T04:07:24;101159.97;;;0.83;100.00
18821;BME280;9539;59.332;18.034;2022-11-20T04:09:51;101167.06;;;0.75;100.00
18821;BME280;9539;59.332;18.034;2022-11-20T04:12:18;101168.91;;;0.65;100.00
18821;BME280;9539;59.332;18.034;2022-11-20T04:14:44;101155.84;;;0.68;100.00
18821;BME280;9539;59.332;18.034;2022-11-20T04:17:11;101153.16;;;0.73;100.00
18821;BME280;9539;59.332;18.034;2022-11-20T04:19:38;101155.72;;;0.77;100.00
18821;BME280;9539;59.332;18.034;2022-11-20T04:22:05;101154.94;;;0.69;100.00
18821;BME280;9539;59.332;18.034;2022-11-20T04:24:33;101153.16;;;0.73;100.00
18821;BME280;9539;59.332;18.034;2022-11-20T04:27:00;101150.41;;;0.84;100.00
18821;BME280;9539;59.332;18.034;2022-11-20T04:29:26;101143.16;;;1.01;100.00
18821;BME280;9539;59.332;18.034;2022-11-20T04:31:53;101148.50;;;0.95;100.00
18821;BME280;9539;59.332;18.034;2022-11-20T04:34:20;101135.41;;;0.95;100.00
18821;BME280;9539;59.332;18.034;2022-11-20T04:36:47;101128.34;;;1.01;100.00
18821;BME280;9539;59.332;18.034;2022-11-20T04:39:14;101124.84;;;1.02;100.00
18821;BME280;9539;59.332;18.034;2022-11-20T04:41:43;101122.34;;;0.96;100.00
18821;BME280;9539;59.332;18.034;2022-11-20T04:44:10;101113.63;;;0.96;100.00
18821;BME280;9539;59.332;18.034;2022-11-20T04:46:39;101115.47;;;0.89;100.00
18821;BME280;9539;59.332;18.034;2022-11-20T04:49:07;101119.75;;;0.93;100.00
18821;BME280;9539;59.332;18.034;2022-11-20T04:51:35;101124.13;;;0.93;100.00
18821;BME280;9539;59.332;18.034;2022-11-20T04:54:02;101122.38;;;0.92;100.00
18821;BME280;9539;59.332;18.034;2022-11-20T04:56:28;101118.66;;;1.09;100.00
18821;BME280;9539;59.332;18.034;2022-11-20T04:59:00;101115.06;;;1.16;100.00
18821;BME280;9539;59.332;18.034;2022-11-20T05:01:27;101112.72;;;0.98;100.00
18821;BME280;9539;59.332;18.034;2022-11-20T05:03:53;101110.72;;;1.14;100.00
18821;BME280;9539;59.332;18.034;2022-11-20T05:06:21;101109.97;;;1.07;100.00
18821;BME280;9539;59.332;18.034;2022-11-20T05:08:48;101104.75;;;1.06;100.00
18821;BME280;9539;59.332;18.034;2022-11-20T05:11:16;101094.16;;;1.15;100.00
18821;BME280;9539;59.332;18.034;2022-11-20T05:13:43;101099.59;;;1.03;100.00
18821;BME280;9539;59.332;18.034;2022-11-20T05:16:13;101087.44;;;0.99;100.00
18821;BME280;9539;59.332;18.034;2022-11-20T05:18:41;101082.97;;;1.05;100.00
18821;BME280;9539;59.332;18.034;2022-11-20T05:21:09;101091.75;;;1.03;100.00
18821;BME280;9539;59.332;18.034;2022-11-20T05:23:36;101092.66;;;0.99;100.00
18821;BME280;9539;59.332;18.034;2022-11-20T05:26:04;101087.28;;;1.09;100.00
18821;BME280;9539;59.332;18.034;2022-11-20T05:28:32;101087.28;;;1.09;100.00
18821;BME280;9539;59.332;18.034;2022-11-20T05:31:05;101078.50;;;1.13;100.00
18821;BME280;9539;59.332;18.034;2022-11-20T05:33:34;101073.69;;;0.88;100.00
18821;BME280;9539;59.332;18.034;2022-11-20T05:36:02;101066.38;;;1.09;100.00
18821;BME280;9539;59.332;18.034;2022-11-20T05:38:29;101061.94;;;1.13;100.00
18821;BME280;9539;59.332;18.034;2022-11-20T05:41:03;101060.63;;;0.89;100.00
18821;BME280;9539;59.332;18.034;2022-11-20T05:43:32;101056.00;;;1.05;100.00
18821;BME280;9539;59.332;18.034;2022-11-20T05:45:59;101057.03;;;0.95;100.00
18821;BME280;9539;59.332;18.034;2022-11-20T05:48:25;101053.66;;;0.90;100.00
18821;BME280;9539;59.332;18.034;2022-11-20T05:50:54;101049.09;;;1.01;100.00
18821;BME280;9539;59.332;18.034;2022-11-20T05:53:20;101051.16;;;0.80;100.00
18821;BME280;9539;59.332;18.034;2022-11-20T05:55:56;101053.59;;;0.93;100.00
18821;BME280;9539;59.332;18.034;2022-11-20T05:58:23;101050.31;;;0.80;100.00
18821;BME280;9539;59.332;18.034;2022-11-20T06:00:49;101058.94;;;0.85;100.00
18821;BME280;9539;59.332;18.034;2022-11-20T06:03:16;101054.34;;;0.99;100.00
18821;BME280;9539;59.332;18.034;2022-11-20T06:05:43;101052.59;;;1.00;100.00
18821;BME280;9539;59.332;18.034;2022-11-20T06:08:11;101046.84;;;0.78;100.00
18821;BME280;9539;59.332;18.034;2022-11-20T06:10:38;101047.44;;;0.97;100.00
18821;BME280;9539;59.332;18.034;2022-11-20T06:13:05;101043.97;;;0.95;100.00
18821;BME280;9539;59.332;18.034;2022-11-20T06:15:32;101041.38;;;0.93;100.00
18821;BME280;9539;59.332;18.034;2022-11-20T06:17:58;101051.69;;;1.02;100.00
18821;BME280;9539;59.332;18.034;2022-11-20T06:20:25;101048.44;;;0.90;100.00
18821;BME280;9539;59.332;18.034;2022-11-20T06:22:52;101045.81;;;0.90;100.00
18821;BME280;9539;59.332;18.034;2022-11-20T06:25:20;101046.72;;;0.86;100.00
18821;BME280;9539;59.332;18.034;2022-11-20T06:27:47;101033.53;;;0.95;100.00
18821;BME280;9539;59.332;18.034;2022-11-20T06:30:14;101026.81;;;0.80;100.00
18821;BME280;9539;59.332;18.034;2022-11-20T06:32:41;101046.72;;;0.87;100.00
18821;BME280;9539;59.332;18.034;2022-11-20T06:35:08;101037.00;;;0.97;100.00
18821;BME280;9539;59.332;18.034;2022-11-20T06:37:35;101035.28;;;0.93;100.00
18821;BME280;9539;59.332;18.034;2022-11-20T06:40:02;101031.75;;;0.97;100.00
18821;BME280;9539;59.332;18.034;2022-11-20T06:42:30;101037.81;;;0.99;100.00
18821;BME280;9539;59.332;18.034;2022-11-20T06:44:57;101027.47;;;0.93;100.00
18821;BME280;9539;59.332;18.034;2022-11-20T06:47:24;101028.19;;;1.02;100.00
18821;BME280;9539;59.332;18.034;2022-11-20T06:49:51;101022.09;;;1.02;100.00
18821;BME280;9539;59.332;18.034;2022-11-20T06:52:17;101020.50;;;0.92;100.00
18821;BME280;9539;59.332;18.034;2022-11-20T06:54:44;101013.59;;;0.91;100.00
18821;BME280;9539;59.332;18.034;2022-11-20T06:57:11;101006.53;;;0.94;100.00
18821;BME280;9539;59.332;18.034;2022-11-20T06:59:39;101005.44;;;1.07;100.00
18821;BME280;9539;59.332;18.034;2022-11-20T07:02:09;101010.84;;;0.97;100.00
18821;BME280;9539;59.332;18.034;2022-11-20T07:04:36;101020.13;;;1.13;100.00
18821;BME280;9539;59.332;18.034;2022-11-20T07:07:02;101028.75;;;1.18;100.00
18821;BME280;9539;59.332;18.034;2022-11-20T07:09:29;101021.03;;;1.10;100.00
18821;BME280;9539;59.332;18.034;2022-11-20T07:11:56;101013.06;;;1.18;100.00
18821;BME280;9539;59.332;18.034;2022-11-20T07:14:23;101012.41;;;1.07;100.00
18821;BME280;9539;59.332;18.034;2022-11-20T07:16:51;101010.56;;;1.13;100.00
18821;BME280;9539;59.332;18.034;2022-11-20T07:19:18;101003.47;;;1.18;100.00
18821;BME280;9539;59.332;18.034;2022-11-20T07:21:44;101018.16;;;1.27;100.00
18821;BME280;9539;59.332;18.034;2022-11-20T07:24:11;101005.13;;;1.24;100.00
18821;BME280;9539;59.332;18.034;2022-11-20T07:26:38;100990.34;;;1.23;100.00
18821;BME280;9539;59.332;18.034;2022-11-20T07:29:05;100988.00;;;1.08;100.00
18821;BME280;9539;59.332;18.034;2022-11-20T07:31:31;100988.63;;;1.22;100.00
18821;BME280;9539;59.332;18.034;2022-11-20T07:34:00;100984.19;;;1.24;100.00
18821;BME280;9539;59.332;18.034;2022-11-20T07:36:27;100985.16;;;1.20;100.00
18821;BME280;9539;59.332;18.034;2022-11-20T07:38:53;100986.13;;;1.16;100.00
18821;BME280;9539;59.332;18.034;2022-11-20T07:41:20;100964.16;;;1.25;100.00
18821;BME280;9539;59.332;18.034;2022-11-20T07:43:47;100988.00;;;1.08;100.00
18821;BME280;9539;59.332;18.034;2022-11-20T07:46:14;100980.19;;;1.06;100.00
18821;BME280;9539;59.332;18.034;2022-11-20T07:48:40;100981.41;;;1.35;100.00
18821;BME280;9539;59.332;18.034;2022-11-20T07:51:08;100976.53;;;1.16;100.00
18821;BME280;9539;59.332;18.034;2022-11-20T07:53:35;100976.59;;;1.12;100.00
18821;BME280;9539;59.332;18.034;2022-11-20T07:56:03;100974.88;;;1.11;100.00
18821;BME280;9539;59.332;18.034;2022-11-20T07:58:30;100972.25;;;1.11;100.00
18821;BME280;9539;59.332;18.034;2022-11-20T08:00:58;100969.59;;;1.14;100.00
18821;BME280;9539;59.332;18.034;2022-11-20T08:03:28;100963.66;;;1.04;100.00
18821;BME280;9539;59.332;18.034;2022-11-20T08:05:58;100964.34;;;1.15;100.00
18821;BME280;9539;59.332;18.034;2022-11-20T08:08:27;100960.53;;;1.32;100.00
18821;BME280;9539;59.332;18.034;2022-11-20T08:10:54;100952.03;;;1.22;100.00
18821;BME280;9539;59.332;18.034;2022-11-20T08:13:42;100952.03;;;1.22;100.00
18821;BME280;9539;59.332;18.034;2022-11-20T08:16:27;100939.75;;;1.26;100.00
18821;BME280;9539;59.332;18.034;2022-11-20T08:18:53;100942.44;;;1.23;100.00
18821;BME280;9539;59.332;18.034;2022-11-20T08:21:20;100956.13;;;1.35;100.00
18821;BME280;9539;59.332;18.034;2022-11-20T08:23:48;100951.56;;;1.45;100.00
18821;BME280;9539;59.332;18.034;2022-11-20T08:26:15;100945.75;;;1.31;100.00
18821;BME280;9539;59.332;18.034;2022-11-20T08:28:42;100942.72;;;1.50;100.00
18821;BME280;9539;59.332;18.034;2022-11-20T08:31:09;100934.00;;;1.51;100.00
18821;BME280;9539;59.332;18.034;2022-11-20T08:33:36;100935.34;;;1.29;100.00
18821;BME280;9539;59.332;18.034;2022-11-20T08:36:03;100920.25;;;1.42;100.00
18821;BME280;9539;59.332;18.034;2022-11-20T08:38:31;100921.22;;;1.36;100.00
18821;BME280;9539;59.332;18.034;2022-11-20T08:41:01;100919.84;;;1.18;100.00
18821;BME280;9539;59.332;18.034;2022-11-20T08:43:46;100916.91;;;1.35;100.00
18821;BME280;9539;59.332;18.034;2022-11-20T08:46:13;100914.44;;;1.29;100.00
18821;BME280;9539;59.332;18.034;2022-11-20T08:48:40;100911.28;;;1.55;100.00
18821;BME280;9539;59.332;18.034;2022-11-20T08:51:07;100911.31;;;1.53;100.00
18821;BME280;9539;59.332;18.034;2022-11-20T08:53:34;100909.81;;;1.42;100.00
18821;BME280;9539;59.332;18.034;2022-11-20T08:56:02;100906.13;;;1.50;100.00
18821;BME280;9539;59.332;18.034;2022-11-20T08:58:29;100897.66;;;1.39;100.00
18821;BME280;9539;59.332;18.034;2022-11-20T09:00:56;100895.72;;;1.49;100.00
18821;BME280;9539;59.332;18.034;2022-11-20T09:03:23;100894.00;;;1.48;100.00
18821;BME280;9539;59.332;18.034;2022-11-20T09:05:56;100888.75;;;1.48;100.00
18821;BME280;9539;59.332;18.034;2022-11-20T09:08:23;100895.03;;;1.39;100.00
18821;BME280;9539;59.332;18.034;2022-11-20T09:10:51;100891.25;;;1.52;100.00
18821;BME280;9539;59.332;18.034;2022-11-20T09:13:19;100891.53;;;1.40;100.00
18821;BME280;9539;59.332;18.034;2022-11-20T09:15:46;100890.56;;;1.44;100.00
18821;BME280;9539;59.332;18.034;2022-11-20T09:18:13;100898.69;;;1.72;100.00
18821;BME280;9539;59.332;18.034;2022-11-20T09:20:40;100893.59;;;1.66;100.00
18821;BME280;9539;59.332;18.034;2022-11-20T09:23:07;100881.56;;;1.57;100.00
18821;BME280;9539;59.332;18.034;2022-11-20T09:25:34;100867.00;;;1.46;100.00
18821;BME280;9539;59.332;18.034;2022-11-20T09:28:00;100882.84;;;1.38;100.00
18821;BME280;9539;59.332;18.034;2022-11-20T09:30:29;100882.13;;;1.32;100.00
18821;BME280;9539;59.332;18.034;2022-11-20T09:32:56;100873.81;;;1.53;100.00
18821;BME280;9539;59.332;18.034;2022-11-20T09:35:23;100876.06;;;1.70;100.00
18821;BME280;9539;59.332;18.034;2022-11-20T09:37:50;100867.72;;;1.52;100.00
18821;BME280;9539;59.332;18.034;2022-11-20T09:40:19;100874.06;;;1.42;100.00
18821;BME280;9539;59.332;18.034;2022-11-20T09:42:51;100866.13;;;1.47;100.00
18821;BME280;9539;59.332;18.034;2022-11-20T09:45:35;100867.78;;;1.49;100.00
18821;BME280;9539;59.332;18.034;2022-11-20T09:48:28;100860.63;;;1.59;100.00
18821;BME280;9539;59.332;18.034;2022-11-20T09:51:05;100852.59;;;1.67;100.00
18821;BME280;9539;59.332;18.034;2022-11-20T09:56:08;100831.81;;;1.60;100.00
18821;BME280;9539;59.332;18.034;2022-11-20T09:58:40;100840.22;;;1.75;100.00
18821;BME280;9539;59.332;18.034;2022-11-20T10:01:12;100831.94;;;1.91;100.00
18821;BME280;9539;59.332;18.034;2022-11-20T10:03:52;100840.41;;;1.66;100.00
18821;BME280;9539;59.332;18.034;2022-11-20T10:06:24;100828.16;;;1.68;100.00
18821;BME280;9539;59.332;18.034;2022-11-20T10:08:59;100815.97;;;1.67;100.00
18821;BME280;9539;59.332;18.034;2022-11-20T10:11:33;100823.75;;;1.70;100.00
18821;BME280;9539;59.332;18.034;2022-11-20T10:14:14;100819.03;;;1.84;100.00
18821;BME280;9539;59.332;18.034;2022-11-20T10:16:52;100810.19;;;1.54;100.00
18821;BME280;9539;59.332;18.034;2022-11-20T10:19:37;100798.69;;;1.96;100.00
18821;BME280;9539;59.332;18.034;2022-11-20T10:22:19;100801.16;;;1.67;100.00
18821;BME280;9539;59.332;18.034;2022-11-20T10:24:55;100793.56;;;1.92;100.00
18821;BME280;9539;59.332;18.034;2022-11-20T10:30:36;100798.47;;;1.69;100.00
18821;BME280;9539;59.332;18.034;2022-11-20T10:33:13;100797.00;;;1.57;100.00
18821;BME280;9539;59.332;18.034;2022-11-20T10:35:44;100789.97;;;1.60;100.00
18821;BME280;9539;59.332;18.034;2022-11-20T10:38:20;100792.16;;;1.79;100.00
18821;BME280;9539;59.332;18.034;2022-11-20T10:40:51;100791.06;;;1.50;100.00
18821;BME280;9539;59.332;18.034;2022-11-20T10:43:40;100774.56;;;1.48;100.00
18821;BME280;9539;59.332;18.034;2022-11-20T10:46:12;100777.78;;;1.59;100.00
18821;BME280;9539;59.332;18.034;2022-11-20T10:48:43;100784.44;;;1.73;100.00
18821;BME280;9539;59.332;18.034;2022-11-20T10:51:33;100779.59;;;1.56;100.00
18821;BME280;9539;59.332;18.034;2022-11-20T10:54:15;100779.00;;;1.45;100.00
18821;BME280;9539;59.332;18.034;2022-11-20T10:56:47;100783.00;;;1.61;100.00
18821;BME280;9539;59.332;18.034;2022-11-20T10:59:38;100777.13;;;1.50;100.00
18821;BME280;9539;59.332;18.034;2022-11-20T11:02:19;100775.91;;;1.65;100.00
18821;BME280;9539;59.332;18.034;2022-11-20T11:04:49;100770.00;;;1.56;100.00
18821;BME280;9539;59.332;18.034;2022-11-20T11:07:19;100764.72;;;1.59;100.00
18821;BME280;9539;59.332;18.034;2022-11-20T11:09:48;100751.84;;;1.50;100.00
18821;BME280;9539;59.332;18.034;2022-11-20T11:12:16;100748.22;;;1.56;100.00
18821;BME280;9539;59.332;18.034;2022-11-20T11:14:44;100747.69;;;1.79;100.00
18821;BME280;9539;59.332;18.034;2022-11-20T11:17:36;100752.56;;;1.57;100.00
18821;BME280;9539;59.332;18.034;2022-11-20T11:20:06;100734.88;;;1.68;100.00
18821;BME280;9539;59.332;18.034;2022-11-20T11:22:43;100734.50;;;1.48;100.00
18821;BME280;9539;59.332;18.034;2022-11-20T11:25:20;100724.59;;;1.60;100.00
18821;BME280;9539;59.332;18.034;2022-11-20T11:27:48;100728.25;;;1.53;100.00
18821;BME280;9539;59.332;18.034;2022-11-20T11:30:16;100718.50;;;1.60;100.00
18821;BME280;9539;59.332;18.034;2022-11-20T11:32:44;100719.09;;;1.71;100.00
18821;BME280;9539;59.332;18.034;2022-11-20T11:35:24;100708.72;;;1.68;100.00
18821;BME280;9539;59.332;18.034;2022-11-20T11:37:54;100707.72;;;1.72;100.00
18821;BME280;9539;59.332;18.034;2022-11-20T11:40:30;100692.56;;;1.51;100.00
18821;BME280;9539;59.332;18.034;2022-11-20T11:43:01;100697.59;;;1.58;100.00
18821;BME280;9539;59.332;18.034;2022-11-20T11:45:28;100687.91;;;1.28;100.00
18821;BME280;9539;59.332;18.034;2022-11-20T11:47:56;100677.16;;;1.40;100.00
18821;BME280;9539;59.332;18.034;2022-11-20T11:50:28;100686.25;;;1.59;100.00
18821;BME280;9539;59.332;18.034;2022-11-20T11:53:02;100683.53;;;1.63;100.00
18821;BME280;9539;59.332;18.034;2022-11-20T11:55:35;100678.47;;;1.56;100.00
18821;BME280;9539;59.332;18.034;2022-11-20T11:58:25;100677.75;;;1.50;100.00
18821;BME280;9539;59.332;18.034;2022-11-20T12:00:58;100670.16;;;1.41;100.00
18821;BME280;9539;59.332;18.034;2022-11-20T12:03:30;100670.50;;;1.27;100.00
18821;BME280;9539;59.332;18.034;2022-11-20T12:06:05;100668.50;;;1.37;100.00
18821;BME280;9539;59.332;18.034;2022-11-20T12:08:41;100659.53;;;1.48;100.00
18821;BME280;9539;59.332;18.034;2022-11-20T12:11:13;100658.03;;;1.38;100.00
18821;BME280;9539;59.332;18.034;2022-11-20T12:13:50;100661.50;;;1.39;100.00
18821;BME280;9539;59.332;18.034;2022-11-20T12:16:20;100656.69;;;1.22;100.00
18821;BME280;9539;59.332;18.034;2022-11-20T12:18:49;100659.31;;;1.22;100.00
18821;BME280;9539;59.332;18.034;2022-11-20T12:21:27;100652.63;;;1.44;100.00
18821;BME280;9539;59.332;18.034;2022-11-20T12:24:12;100648.03;;;1.18;100.00
18821;BME280;9539;59.332;18.034;2022-11-20T12:26:53;100652.38;;;1.19;100.00
18821;BME280;9539;59.332;18.034;2022-11-20T12:29:32;100655.81;;;1.22;100.00
18821;BME280;9539;59.332;18.034;2022-11-20T12:35:00;100666.44;;;1.15;100.00
18821;BME280;9539;59.332;18.034;2022-11-20T12:37:39;100652.56;;;1.12;100.00
18821;BME280;9539;59.332;18.034;2022-11-20T12:40:27;100641.22;;;1.13;100.00
18821;BME280;9539;59.332;18.034;2022-11-20T12:43:06;100641.63;;;1.32;100.00
18821;BME280;9539;59.332;18.034;2022-11-20T12:46:04;100653.19;;;1.23;100.00
18821;BME280;9539;59.332;18.034;2022-11-20T12:48:56;100641.97;;;1.18;100.00
18821;BME280;9539;59.332;18.034;2022-11-20T12:51:50;100637.09;;;1.38;100.00
18821;BME280;9539;59.332;18.034;2022-11-20T12:54:37;100629.22;;;1.04;100.00
18821;BME280;9539;59.332;18.034;2022-11-20T12:57:09;100624.50;;;1.20;100.00
18821;BME280;9539;59.332;18.034;2022-11-20T13:05:33;100618.44;;;1.18;100.00
18821;BME280;9539;59.332;18.034;2022-11-20T13:08:03;100610.75;;;1.47;100.00
18821;BME280;9539;59.332;18.034;2022-11-20T13:10:35;100602.28;;;1.36;100.00
18821;BME280;9539;59.332;18.034;2022-11-20T13:13:11;100599.28;;;1.51;100.00
18821;BME280;9539;59.332;18.034;2022-11-20T13:15:50;100588.13;;;1.45;100.00
18821;BME280;9539;59.332;18.034;2022-11-20T13:18:18;100592.00;;;1.30;100.00
18821;BME280;9539;59.332;18.034;2022-11-20T13:20:46;100583.72;;;1.48;100.00